sensor_id;sensor_type;location;lat;lon;timestamp;pressure;altitude;pressure_sealevel;temperature
34807;BMP180;18310;55.586;12.286;2022-08-26T00:01:27;101887.00;;;28.20
34807;BMP180;18310;55.586;12.286;2022-08-26T00:04:30;101878.00;;;28.10
34807;BMP180;18310;55.586;12.286;2022-08-26T00:07:35;101871.00;;;28.10
34807;BMP180;18310;55.586;12.286;2022-08-26T00:10:41;101870.00;;;28.10
34807;BMP180;18310;55.586;12.286;2022-08-26T00:13:44;101871.00;;;28.00
34807;BMP180;18310;55.586;12.286;2022-08-26T00:16:50;101864.00;;;28.00
34807;BMP180;18310;55.586;12.286;2022-08-26T00:19:56;101876.00;;;28.00
34807;BMP180;18310;55.586;12.286;2022-08-26T00:22:59;101865.00;;;27.90
34807;BMP180;18310;55.586;12.286;2022-08-26T00:26:05;101865.00;;;27.90
34807;BMP180;18310;55.586;12.286;2022-08-26T00:29:12;101858.00;;;27.90
34807;BMP180;18310;55.586;12.286;2022-08-26T00:32:15;101857.00;;;27.90
34807;BMP180;18310;55.586;12.286;2022-08-26T00:35:19;101870.00;;;27.90
34807;BMP180;18310;55.586;12.286;2022-08-26T00:38:24;101859.00;;;27.90
34807;BMP180;18310;55.586;12.286;2022-08-26T00:41:29;101847.00;;;27.90
34807;BMP180;18310;55.586;12.286;2022-08-26T00:44:32;101846.00;;;27.90
34807;BMP180;18310;55.586;12.286;2022-08-26T00:47:42;101850.00;;;27.90
34807;BMP180;18310;55.586;12.286;2022-08-26T00:50:54;101844.00;;;28.00
34807;BMP180;18310;55.586;12.286;2022-08-26T00:54:02;101844.00;;;28.00
34807;BMP180;18310;55.586;12.286;2022-08-26T00:57:12;101837.00;;;28.00
34807;BMP180;18310;55.586;12.286;2022-08-26T01:00:23;101835.00;;;28.00
34807;BMP180;18310;55.586;12.286;2022-08-26T01:03:30;101825.00;;;28.00
34807;BMP180;18310;55.586;12.286;2022-08-26T01:06:34;101834.00;;;27.90
34807;BMP180;18310;55.586;12.286;2022-08-26T01:09:37;101825.00;;;27.90
34807;BMP180;18310;55.586;12.286;2022-08-26T01:12:47;101843.00;;;28.00
34807;BMP180;18310;55.586;12.286;2022-08-26T01:15:58;101832.00;;;28.00
34807;BMP180;18310;55.586;12.286;2022-08-26T01:19:13;101830.00;;;28.00
34807;BMP180;18310;55.586;12.286;2022-08-26T01:22:21;101824.00;;;28.00
34807;BMP180;18310;55.586;12.286;2022-08-26T01:25:35;101830.00;;;28.00
34807;BMP180;18310;55.586;12.286;2022-08-26T01:28:41;101818.00;;;27.90
34807;BMP180;18310;55.586;12.286;2022-08-26T01:31:53;101828.00;;;27.90
34807;BMP180;18310;55.586;12.286;2022-08-26T01:34:57;101829.00;;;27.90
34807;BMP180;18310;55.586;12.286;2022-08-26T01:38:01;101819.00;;;27.90
34807;BMP180;18310;55.586;12.286;2022-08-26T01:41:08;101834.00;;;27.90
34807;BMP180;18310;55.586;12.286;2022-08-26T01:44:25;101823.00;;;27.90
34807;BMP180;18310;55.586;12.286;2022-08-26T01:47:32;101824.00;;;27.90
34807;BMP180;18310;55.586;12.286;2022-08-26T01:50:39;101822.00;;;27.80
34807;BMP180;18310;55.586;12.286;2022-08-26T01:53:44;101820.00;;;27.80
34807;BMP180;18310;55.586;12.286;2022-08-26T01:56:51;101811.00;;;27.80
34807;BMP180;18310;55.586;12.286;2022-08-26T01:59:58;101814.00;;;27.80
34807;BMP180;18310;55.586;12.286;2022-08-26T02:03:06;101820.00;;;27.80
34807;BMP180;18310;55.586;12.286;2022-08-26T02:06:19;101818.00;;;27.80
34807;BMP180;18310;55.586;12.286;2022-08-26T02:09:23;101806.00;;;27.80
34807;BMP180;18310;55.586;12.286;2022-08-26T02:12:30;101805.00;;;27.80
34807;BMP180;18310;55.586;12.286;2022-08-26T02:15:35;101809.00;;;27.80
34807;BMP180;18310;55.586;12.286;2022-08-26T02:18:42;101807.00;;;27.80
34807;BMP180;18310;55.586;12.286;2022-08-26T02:21:49;101804.00;;;27.80
34807;BMP180;18310;55.586;12.286;2022-08-26T02:24:57;101813.00;;;27.80
34807;BMP180;18310;55.586;12.286;2022-08-26T02:28:02;101795.00;;;27.80
34807;BMP180;18310;55.586;12.286;2022-08-26T02:31:06;101803.00;;;27.80
34807;BMP180;18310;55.586;12.286;2022-08-26T02:34:13;101796.00;;;27.80
34807;BMP180;18310;55.586;12.286;2022-08-26T02:37:17;101787.00;;;27.80
34807;BMP180;18310;55.586;12.286;2022-08-26T02:40:28;101791.00;;;27.80
34807;BMP180;18310;55.586;12.286;2022-08-26T02:43:33;101798.00;;;27.80
34807;BMP180;18310;55.586;12.286;2022-08-26T02:46:38;101787.00;;;27.80
34807;BMP180;18310;55.586;12.286;2022-08-26T02:49:42;101778.00;;;27.80
34807;BMP180;18310;55.586;12.286;2022-08-26T02:52:49;101782.00;;;27.80
34807;BMP180;18310;55.586;12.286;2022-08-26T02:55:52;101769.00;;;27.80
34807;BMP180;18310;55.586;12.286;2022-08-26T02:58:57;101770.00;;;27.80
34807;BMP180;18310;55.586;12.286;2022-08-26T03:02:00;101765.00;;;27.70
34807;BMP180;18310;55.586;12.286;2022-08-26T03:05:05;101772.00;;;27.70
34807;BMP180;18310;55.586;12.286;2022-08-26T03:08:08;101770.00;;;27.70
34807;BMP180;18310;55.586;12.286;2022-08-26T03:11:13;101772.00;;;27.80
34807;BMP180;18310;55.586;12.286;2022-08-26T03:14:18;101768.00;;;27.70
34807;BMP180;18310;55.586;12.286;2022-08-26T03:17:22;101778.00;;;27.80
34807;BMP180;18310;55.586;12.286;2022-08-26T03:20:27;101768.00;;;27.80
34807;BMP180;18310;55.586;12.286;2022-08-26T03:23:31;101760.00;;;27.80
34807;BMP180;18310;55.586;12.286;2022-08-26T03:26:35;101767.00;;;27.90
34807;BMP180;18310;55.586;12.286;2022-08-26T03:29:41;101753.00;;;27.90
34807;BMP180;18310;55.586;12.286;2022-08-26T03:33:02;101753.00;;;27.90
34807;BMP180;18310;55.586;12.286;2022-08-26T03:36:06;101750.00;;;28.00
34807;BMP180;18310;55.586;12.286;2022-08-26T03:39:11;101747.00;;;27.90
34807;BMP180;18310;55.586;12.286;2022-08-26T03:42:15;101745.00;;;28.00
34807;BMP180;18310;55.586;12.286;2022-08-26T03:45:23;101741.00;;;28.00
34807;BMP180;18310;55.586;12.286;2022-08-26T03:48:27;101745.00;;;28.00
34807;BMP180;18310;55.586;12.286;2022-08-26T03:51:32;101748.00;;;28.00
34807;BMP180;18310;55.586;12.286;2022-08-26T03:54:40;101747.00;;;28.00
34807;BMP180;18310;55.586;12.286;2022-08-26T03:57:44;101745.00;;;28.00
34807;BMP180;18310;55.586;12.286;2022-08-26T04:00:50;101743.00;;;28.00
34807;BMP180;18310;55.586;12.286;2022-08-26T04:03:57;101738.00;;;28.00
34807;BMP180;18310;55.586;12.286;2022-08-26T04:07:02;101744.00;;;28.00
34807;BMP180;18310;55.586;12.286;2022-08-26T04:10:07;101741.00;;;28.00
34807;BMP180;18310;55.586;12.286;2022-08-26T04:13:11;101738.00;;;28.00
34807;BMP180;18310;55.586;12.286;2022-08-26T04:16:18;101737.00;;;28.00
34807;BMP180;18310;55.586;12.286;2022-08-26T04:19:24;101738.00;;;28.00
34807;BMP180;18310;55.586;12.286;2022-08-26T04:22:27;101738.00;;;28.00
34807;BMP180;18310;55.586;12.286;2022-08-26T04:25:30;101732.00;;;28.00
34807;BMP180;18310;55.586;12.286;2022-08-26T04:28:34;101742.00;;;28.00
34807;BMP180;18310;55.586;12.286;2022-08-26T04:31:39;101744.00;;;28.00
34807;BMP180;18310;55.586;12.286;2022-08-26T04:34:42;101745.00;;;28.00
34807;BMP180;18310;55.586;12.286;2022-08-26T04:37:46;101741.00;;;28.00
34807;BMP180;18310;55.586;12.286;2022-08-26T04:40:50;101747.00;;;28.10
34807;BMP180;18310;55.586;12.286;2022-08-26T04:43:54;101744.00;;;28.10
34807;BMP180;18310;55.586;12.286;2022-08-26T04:46:59;101742.00;;;28.20
34807;BMP180;18310;55.586;12.286;2022-08-26T04:50:05;101750.00;;;28.20
34807;BMP180;18310;55.586;12.286;2022-08-26T04:53:11;101757.00;;;28.30
34807;BMP180;18310;55.586;12.286;2022-08-26T04:56:15;101751.00;;;28.30
34807;BMP180;18310;55.586;12.286;2022-08-26T04:59:19;101749.00;;;28.40
34807;BMP180;18310;55.586;12.286;2022-08-26T05:02:24;101752.00;;;28.40
34807;BMP180;18310;55.586;12.286;2022-08-26T05:05:27;101755.00;;;28.40
34807;BMP180;18310;55.586;12.286;2022-08-26T05:08:31;101747.00;;;28.50
34807;BMP180;18310;55.586;12.286;2022-08-26T05:11:35;101749.00;;;28.60
34807;BMP180;18310;55.586;12.286;2022-08-26T05:14:39;101745.00;;;28.60
34807;BMP180;18310;55.586;12.286;2022-08-26T05:17:45;101754.00;;;28.80
34807;BMP180;18310;55.586;12.286;2022-08-26T05:20:52;101750.00;;;28.90
34807;BMP180;18310;55.586;12.286;2022-08-26T05:23:56;101743.00;;;29.20
34807;BMP180;18310;55.586;12.286;2022-08-26T05:27:00;101749.00;;;29.50
34807;BMP180;18310;55.586;12.286;2022-08-26T05:30:13;101742.00;;;29.80
34807;BMP180;18310;55.586;12.286;2022-08-26T05:33:18;101745.00;;;30.10
34807;BMP180;18310;55.586;12.286;2022-08-26T05:36:26;101742.00;;;30.40
34807;BMP180;18310;55.586;12.286;2022-08-26T05:39:31;101747.00;;;30.80
34807;BMP180;18310;55.586;12.286;2022-08-26T05:42:35;101748.00;;;31.20
34807;BMP180;18310;55.586;12.286;2022-08-26T05:45:41;101756.00;;;31.50
34807;BMP180;18310;55.586;12.286;2022-08-26T05:48:48;101752.00;;;31.70
34807;BMP180;18310;55.586;12.286;2022-08-26T05:51:53;101750.00;;;32.00
34807;BMP180;18310;55.586;12.286;2022-08-26T05:54:56;101752.00;;;32.20
34807;BMP180;18310;55.586;12.286;2022-08-26T05:57:59;101749.00;;;32.50
34807;BMP180;18310;55.586;12.286;2022-08-26T06:01:05;101749.00;;;32.80
34807;BMP180;18310;55.586;12.286;2022-08-26T06:04:12;101753.00;;;33.00
34807;BMP180;18310;55.586;12.286;2022-08-26T06:07:16;101761.00;;;33.20
34807;BMP180;18310;55.586;12.286;2022-08-26T06:10:45;101761.00;;;33.50
34807;BMP180;18310;55.586;12.286;2022-08-26T06:13:49;101756.00;;;33.70
34807;BMP180;18310;55.586;12.286;2022-08-26T06:16:52;101749.00;;;33.90
34807;BMP180;18310;55.586;12.286;2022-08-26T06:19:57;101753.00;;;34.20
34807;BMP180;18310;55.586;12.286;2022-08-26T06:23:02;101749.00;;;34.40
34807;BMP180;18310;55.586;12.286;2022-08-26T06:26:24;101756.00;;;34.50
34807;BMP180;18310;55.586;12.286;2022-08-26T06:29:30;101748.00;;;34.70
34807;BMP180;18310;55.586;12.286;2022-08-26T06:32:34;101744.00;;;34.80
34807;BMP180;18310;55.586;12.286;2022-08-26T06:35:40;101751.00;;;35.10
34807;BMP180;18310;55.586;12.286;2022-08-26T06:38:45;101744.00;;;35.30
34807;BMP180;18310;55.586;12.286;2022-08-26T06:41:49;101745.00;;;35.50
34807;BMP180;18310;55.586;12.286;2022-08-26T06:44:53;101750.00;;;35.60
34807;BMP180;18310;55.586;12.286;2022-08-26T06:47:56;101759.00;;;35.70
34807;BMP180;18310;55.586;12.286;2022-08-26T06:51:07;101751.00;;;35.80
34807;BMP180;18310;55.586;12.286;2022-08-26T06:54:11;101757.00;;;35.90
34807;BMP180;18310;55.586;12.286;2022-08-26T06:57:14;101757.00;;;35.90
34807;BMP180;18310;55.586;12.286;2022-08-26T07:00:18;101752.00;;;35.90
34807;BMP180;18310;55.586;12.286;2022-08-26T07:03:22;101761.00;;;36.00
34807;BMP180;18310;55.586;12.286;2022-08-26T07:06:27;101752.00;;;36.30
34807;BMP180;18310;55.586;12.286;2022-08-26T07:09:30;101756.00;;;36.40
34807;BMP180;18310;55.586;12.286;2022-08-26T07:12:38;101747.00;;;36.30
34807;BMP180;18310;55.586;12.286;2022-08-26T07:15:42;101754.00;;;36.20
34807;BMP180;18310;55.586;12.286;2022-08-26T07:18:45;101754.00;;;36.20
34807;BMP180;18310;55.586;12.286;2022-08-26T07:21:52;101755.00;;;36.10
34807;BMP180;18310;55.586;12.286;2022-08-26T07:24:56;101742.00;;;35.80
34807;BMP180;18310;55.586;12.286;2022-08-26T07:28:00;101754.00;;;35.20
34807;BMP180;18310;55.586;12.286;2022-08-26T07:31:04;101751.00;;;34.60
34807;BMP180;18310;55.586;12.286;2022-08-26T07:34:11;101753.00;;;34.10
34807;BMP180;18310;55.586;12.286;2022-08-26T07:37:17;101750.00;;;33.70
34807;BMP180;18310;55.586;12.286;2022-08-26T07:40:21;101737.00;;;33.40
34807;BMP180;18310;55.586;12.286;2022-08-26T07:43:24;101741.00;;;33.20
34807;BMP180;18310;55.586;12.286;2022-08-26T07:46:30;101740.00;;;33.10
34807;BMP180;18310;55.586;12.286;2022-08-26T07:49:34;101741.00;;;32.90
34807;BMP180;18310;55.586;12.286;2022-08-26T07:52:39;101746.00;;;32.70
34807;BMP180;18310;55.586;12.286;2022-08-26T07:55:43;101743.00;;;32.60
34807;BMP180;18310;55.586;12.286;2022-08-26T07:58:46;101741.00;;;32.50
34807;BMP180;18310;55.586;12.286;2022-08-26T08:01:52;101743.00;;;32.30
34807;BMP180;18310;55.586;12.286;2022-08-26T08:04:58;101743.00;;;32.30
34807;BMP180;18310;55.586;12.286;2022-08-26T08:08:06;101738.00;;;32.40
34807;BMP180;18310;55.586;12.286;2022-08-26T08:11:30;101731.00;;;32.30
34807;BMP180;18310;55.586;12.286;2022-08-26T08:14:34;101734.00;;;32.50
34807;BMP180;18310;55.586;12.286;2022-08-26T08:17:38;101737.00;;;32.60
34807;BMP180;18310;55.586;12.286;2022-08-26T08:20:43;101741.00;;;32.70
34807;BMP180;18310;55.586;12.286;2022-08-26T08:24:09;101742.00;;;32.80
34807;BMP180;18310;55.586;12.286;2022-08-26T08:27:12;101737.00;;;32.80
34807;BMP180;18310;55.586;12.286;2022-08-26T08:30:20;101744.00;;;32.80
34807;BMP180;18310;55.586;12.286;2022-08-26T08:33:24;101745.00;;;32.70
34807;BMP180;18310;55.586;12.286;2022-08-26T08:36:28;101750.00;;;32.70
34807;BMP180;18310;55.586;12.286;2022-08-26T08:39:38;101752.00;;;32.70
34807;BMP180;18310;55.586;12.286;2022-08-26T08:42:52;101743.00;;;32.80
34807;BMP180;18310;55.586;12.286;2022-08-26T08:46:02;101746.00;;;33.00
34807;BMP180;18310;55.586;12.286;2022-08-26T08:49:05;101750.00;;;33.10
34807;BMP180;18310;55.586;12.286;2022-08-26T08:52:20;101746.00;;;32.90
34807;BMP180;18310;55.586;12.286;2022-08-26T08:55:41;101745.00;;;32.90
34807;BMP180;18310;55.586;12.286;2022-08-26T08:58:55;101735.00;;;32.80
34807;BMP180;18310;55.586;12.286;2022-08-26T09:02:08;101732.00;;;32.90
34807;BMP180;18310;55.586;12.286;2022-08-26T09:05:20;101750.00;;;32.80
34807;BMP180;18310;55.586;12.286;2022-08-26T09:08:31;101737.00;;;32.80
34807;BMP180;18310;55.586;12.286;2022-08-26T09:11:39;101735.00;;;32.70
34807;BMP180;18310;55.586;12.286;2022-08-26T09:14:43;101731.00;;;32.80
34807;BMP180;18310;55.586;12.286;2022-08-26T09:17:57;101739.00;;;32.90
34807;BMP180;18310;55.586;12.286;2022-08-26T09:21:10;101723.00;;;32.90
34807;BMP180;18310;55.586;12.286;2022-08-26T09:24:13;101723.00;;;33.00
34807;BMP180;18310;55.586;12.286;2022-08-26T09:27:43;101729.00;;;33.20
34807;BMP180;18310;55.586;12.286;2022-08-26T09:31:00;101723.00;;;33.20
34807;BMP180;18310;55.586;12.286;2022-08-26T09:34:14;101724.00;;;33.20
34807;BMP180;18310;55.586;12.286;2022-08-26T09:37:38;101723.00;;;33.30
34807;BMP180;18310;55.586;12.286;2022-08-26T09:40:55;101718.00;;;33.30
34807;BMP180;18310;55.586;12.286;2022-08-26T09:44:17;101711.00;;;33.40
34807;BMP180;18310;55.586;12.286;2022-08-26T09:47:27;101698.00;;;33.40
34807;BMP180;18310;55.586;12.286;2022-08-26T09:50:36;101708.00;;;33.50
34807;BMP180;18310;55.586;12.286;2022-08-26T09:53:54;101710.00;;;33.40
34807;BMP180;18310;55.586;12.286;2022-08-26T09:57:17;101712.00;;;33.30
34807;BMP180;18310;55.586;12.286;2022-08-26T10:00:31;101712.00;;;33.30
34807;BMP180;18310;55.586;12.286;2022-08-26T10:03:37;101710.00;;;33.40
34807;BMP180;18310;55.586;12.286;2022-08-26T10:06:54;101706.00;;;33.40
34807;BMP180;18310;55.586;12.286;2022-08-26T10:09:58;101705.00;;;33.40
34807;BMP180;18310;55.586;12.286;2022-08-26T10:13:08;101702.00;;;33.50
34807;BMP180;18310;55.586;12.286;2022-08-26T10:16:20;101699.00;;;33.60
34807;BMP180;18310;55.586;12.286;2022-08-26T10:19:36;101696.00;;;33.60
34807;BMP180;18310;55.586;12.286;2022-08-26T10:23:02;101700.00;;;33.70
34807;BMP180;18310;55.586;12.286;2022-08-26T10:26:12;101700.00;;;33.70
34807;BMP180;18310;55.586;12.286;2022-08-26T10:29:24;101703.00;;;33.70
34807;BMP180;18310;55.586;12.286;2022-08-26T10:32:36;101710.00;;;33.80
34807;BMP180;18310;55.586;12.286;2022-08-26T10:35:51;101700.00;;;33.80
34807;BMP180;18310;55.586;12.286;2022-08-26T10:38:58;101696.00;;;33.70
34807;BMP180;18310;55.586;12.286;2022-08-26T10:42:07;101694.00;;;33.70
34807;BMP180;18310;55.586;12.286;2022-08-26T10:45:16;101687.00;;;33.70
34807;BMP180;18310;55.586;12.286;2022-08-26T10:48:29;101689.00;;;33.80
34807;BMP180;18310;55.586;12.286;2022-08-26T10:51:49;101682.00;;;33.80
34807;BMP180;18310;55.586;12.286;2022-08-26T10:55:02;101675.00;;;33.90
34807;BMP180;18310;55.586;12.286;2022-08-26T10:58:29;101683.00;;;33.80
34807;BMP180;18310;55.586;12.286;2022-08-26T11:01:42;101685.00;;;33.70
34807;BMP180;18310;55.586;12.286;2022-08-26T11:04:56;101676.00;;;33.60
34807;BMP180;18310;55.586;12.286;2022-08-26T11:08:29;101680.00;;;33.70
34807;BMP180;18310;55.586;12.286;2022-08-26T11:11:50;101673.00;;;33.70
34807;BMP180;18310;55.586;12.286;2022-08-26T11:14:54;101678.00;;;33.60
34807;BMP180;18310;55.586;12.286;2022-08-26T11:18:02;101678.00;;;33.60
34807;BMP180;18310;55.586;12.286;2022-08-26T11:22:00;101671.00;;;33.60
34807;BMP180;18310;55.586;12.286;2022-08-26T11:25:16;101675.00;;;33.50
34807;BMP180;18310;55.586;12.286;2022-08-26T11:28:32;101681.00;;;33.50
34807;BMP180;18310;55.586;12.286;2022-08-26T11:31:54;101664.00;;;33.40
34807;BMP180;18310;55.586;12.286;2022-08-26T11:34:59;101665.00;;;33.40
34807;BMP180;18310;55.586;12.286;2022-08-26T11:38:15;101660.00;;;33.50
34807;BMP180;18310;55.586;12.286;2022-08-26T11:41:21;101661.00;;;33.50
34807;BMP180;18310;55.586;12.286;2022-08-26T11:44:39;101664.00;;;33.40
34807;BMP180;18310;55.586;12.286;2022-08-26T11:47:51;101659.00;;;33.30
34807;BMP180;18310;55.586;12.286;2022-08-26T11:50:58;101654.00;;;33.20
34807;BMP180;18310;55.586;12.286;2022-08-26T11:54:14;101663.00;;;33.20
34807;BMP180;18310;55.586;12.286;2022-08-26T11:57:43;101662.00;;;33.20
34807;BMP180;18310;55.586;12.286;2022-08-26T12:00:55;101652.00;;;33.30
34807;BMP180;18310;55.586;12.286;2022-08-26T12:04:00;101651.00;;;33.30
34807;BMP180;18310;55.586;12.286;2022-08-26T12:07:05;101647.00;;;33.30
34807;BMP180;18310;55.586;12.286;2022-08-26T12:10:26;101641.00;;;33.30
34807;BMP180;18310;55.586;12.286;2022-08-26T12:13:31;101634.00;;;33.30
34807;BMP180;18310;55.586;12.286;2022-08-26T12:16:38;101631.00;;;33.40
34807;BMP180;18310;55.586;12.286;2022-08-26T12:19:42;101618.00;;;33.40
34807;BMP180;18310;55.586;12.286;2022-08-26T12:22:46;101623.00;;;33.60
34807;BMP180;18310;55.586;12.286;2022-08-26T12:26:02;101621.00;;;33.70
34807;BMP180;18310;55.586;12.286;2022-08-26T12:29:13;101617.00;;;33.70
34807;BMP180;18310;55.586;12.286;2022-08-26T12:32:29;101608.00;;;33.70
34807;BMP180;18310;55.586;12.286;2022-08-26T12:35:36;101599.00;;;33.70
34807;BMP180;18310;55.586;12.286;2022-08-26T12:38:42;101598.00;;;33.60
34807;BMP180;18310;55.586;12.286;2022-08-26T12:41:50;101596.00;;;33.60
34807;BMP180;18310;55.586;12.286;2022-08-26T12:45:00;101593.00;;;33.60
34807;BMP180;18310;55.586;12.286;2022-08-26T12:48:08;101586.00;;;33.50
34807;BMP180;18310;55.586;12.286;2022-08-26T12:51:21;101577.00;;;33.60
34807;BMP180;18310;55.586;12.286;2022-08-26T12:54:26;101576.00;;;33.60
34807;BMP180;18310;55.586;12.286;2022-08-26T12:58:14;101579.00;;;33.50
34807;BMP180;18310;55.586;12.286;2022-08-26T13:01:22;101575.00;;;33.50
34807;BMP180;18310;55.586;12.286;2022-08-26T13:04:40;101571.00;;;33.50
34807;BMP180;18310;55.586;12.286;2022-08-26T13:08:09;101576.00;;;33.40
34807;BMP180;18310;55.586;12.286;2022-08-26T13:11:15;101561.00;;;33.40
34807;BMP180;18310;55.586;12.286;2022-08-26T13:14:22;101569.00;;;33.30
34807;BMP180;18310;55.586;12.286;2022-08-26T13:17:28;101561.00;;;33.20
34807;BMP180;18310;55.586;12.286;2022-08-26T13:20:31;101561.00;;;33.10
34807;BMP180;18310;55.586;12.286;2022-08-26T13:23:35;101556.00;;;33.00
34807;BMP180;18310;55.586;12.286;2022-08-26T13:26:46;101552.00;;;33.00
34807;BMP180;18310;55.586;12.286;2022-08-26T13:29:52;101546.00;;;33.00
34807;BMP180;18310;55.586;12.286;2022-08-26T13:32:58;101541.00;;;33.10
34807;BMP180;18310;55.586;12.286;2022-08-26T13:36:06;101533.00;;;33.10
34807;BMP180;18310;55.586;12.286;2022-08-26T13:39:10;101532.00;;;33.10
34807;BMP180;18310;55.586;12.286;2022-08-26T13:42:14;101523.00;;;33.10
34807;BMP180;18310;55.586;12.286;2022-08-26T13:45:19;101520.00;;;33.00
34807;BMP180;18310;55.586;12.286;2022-08-26T13:48:22;101530.00;;;33.00
34807;BMP180;18310;55.586;12.286;2022-08-26T13:51:27;101525.00;;;33.00
34807;BMP180;18310;55.586;12.286;2022-08-26T13:54:31;101523.00;;;33.00
34807;BMP180;18310;55.586;12.286;2022-08-26T13:57:34;101529.00;;;33.00
34807;BMP180;18310;55.586;12.286;2022-08-26T14:00:39;101522.00;;;33.00
34807;BMP180;18310;55.586;12.286;2022-08-26T14:03:43;101516.00;;;33.00
34807;BMP180;18310;55.586;12.286;2022-08-26T14:06:47;101518.00;;;33.00
34807;BMP180;18310;55.586;12.286;2022-08-26T14:09:50;101512.00;;;33.00
34807;BMP180;18310;55.586;12.286;2022-08-26T14:12:53;101513.00;;;33.00
34807;BMP180;18310;55.586;12.286;2022-08-26T14:15:59;101501.00;;;32.90
34807;BMP180;18310;55.586;12.286;2022-08-26T14:19:04;101502.00;;;32.90
34807;BMP180;18310;55.586;12.286;2022-08-26T14:22:09;101508.00;;;33.00
34807;BMP180;18310;55.586;12.286;2022-08-26T14:25:13;101515.00;;;33.00
34807;BMP180;18310;55.586;12.286;2022-08-26T14:28:17;101499.00;;;33.10
34807;BMP180;18310;55.586;12.286;2022-08-26T14:31:22;101506.00;;;33.20
34807;BMP180;18310;55.586;12.286;2022-08-26T14:34:27;101504.00;;;33.20
34807;BMP180;18310;55.586;12.286;2022-08-26T14:37:31;101509.00;;;33.20
34807;BMP180;18310;55.586;12.286;2022-08-26T14:40:34;101517.00;;;33.20
34807;BMP180;18310;55.586;12.286;2022-08-26T14:43:46;101517.00;;;33.20
34807;BMP180;18310;55.586;12.286;2022-08-26T14:46:52;101521.00;;;33.30
34807;BMP180;18310;55.586;12.286;2022-08-26T14:49:56;101510.00;;;33.30
34807;BMP180;18310;55.586;12.286;2022-08-26T14:52:59;101506.00;;;33.40
34807;BMP180;18310;55.586;12.286;2022-08-26T14:56:20;101496.00;;;33.40
34807;BMP180;18310;55.586;12.286;2022-08-26T14:59:26;101491.00;;;33.40
34807;BMP180;18310;55.586;12.286;2022-08-26T15:02:31;101494.00;;;33.50
34807;BMP180;18310;55.586;12.286;2022-08-26T15:05:35;101494.00;;;33.50
34807;BMP180;18310;55.586;12.286;2022-08-26T15:08:38;101499.00;;;33.50
34807;BMP180;18310;55.586;12.286;2022-08-26T15:11:42;101501.00;;;33.50
34807;BMP180;18310;55.586;12.286;2022-08-26T15:14:48;101507.00;;;33.50
34807;BMP180;18310;55.586;12.286;2022-08-26T15:17:53;101499.00;;;33.50
34807;BMP180;18310;55.586;12.286;2022-08-26T15:20:56;101496.00;;;33.50
34807;BMP180;18310;55.586;12.286;2022-08-26T15:24:01;101494.00;;;33.50
34807;BMP180;18310;55.586;12.286;2022-08-26T15:27:05;101493.00;;;33.40
34807;BMP180;18310;55.586;12.286;2022-08-26T15:30:11;101500.00;;;33.40
34807;BMP180;18310;55.586;12.286;2022-08-26T15:33:16;101496.00;;;33.40
34807;BMP180;18310;55.586;12.286;2022-08-26T15:36:20;101500.00;;;33.50
34807;BMP180;18310;55.586;12.286;2022-08-26T15:39:23;101493.00;;;33.50
34807;BMP180;18310;55.586;12.286;2022-08-26T15:42:26;101499.00;;;33.50
34807;BMP180;18310;55.586;12.286;2022-08-26T15:45:32;101493.00;;;33.50
34807;BMP180;18310;55.586;12.286;2022-08-26T15:48:37;101489.00;;;33.50
34807;BMP180;18310;55.586;12.286;2022-08-26T15:51:40;101487.00;;;33.50
34807;BMP180;18310;55.586;12.286;2022-08-26T15:54:47;101477.00;;;33.50
34807;BMP180;18310;55.586;12.286;2022-08-26T15:57:51;101483.00;;;33.40
34807;BMP180;18310;55.586;12.286;2022-08-26T16:00:56;101476.00;;;33.30
34807;BMP180;18310;55.586;12.286;2022-08-26T16:04:01;101472.00;;;33.20
34807;BMP180;18310;55.586;12.286;2022-08-26T16:07:05;101461.00;;;33.10
34807;BMP180;18310;55.586;12.286;2022-08-26T16:10:09;101455.00;;;33.10
34807;BMP180;18310;55.586;12.286;2022-08-26T16:13:12;101458.00;;;33.00
34807;BMP180;18310;55.586;12.286;2022-08-26T16:16:16;101460.00;;;33.00
34807;BMP180;18310;55.586;12.286;2022-08-26T16:19:22;101456.00;;;32.90
34807;BMP180;18310;55.586;12.286;2022-08-26T16:22:26;101455.00;;;32.90
34807;BMP180;18310;55.586;12.286;2022-08-26T16:25:31;101454.00;;;33.00
34807;BMP180;18310;55.586;12.286;2022-08-26T16:28:34;101454.00;;;32.90
34807;BMP180;18310;55.586;12.286;2022-08-26T16:31:39;101457.00;;;32.80
34807;BMP180;18310;55.586;12.286;2022-08-26T16:34:44;101452.00;;;32.80
34807;BMP180;18310;55.586;12.286;2022-08-26T16:37:57;101452.00;;;32.70
34807;BMP180;18310;55.586;12.286;2022-08-26T16:41:01;101453.00;;;32.70
34807;BMP180;18310;55.586;12.286;2022-08-26T16:44:06;101455.00;;;32.80
34807;BMP180;18310;55.586;12.286;2022-08-26T16:47:10;101458.00;;;32.80
34807;BMP180;18310;55.586;12.286;2022-08-26T16:50:16;101460.00;;;32.80
34807;BMP180;18310;55.586;12.286;2022-08-26T16:53:20;101450.00;;;32.70
34807;BMP180;18310;55.586;12.286;2022-08-26T16:56:26;101444.00;;;32.70
34807;BMP180;18310;55.586;12.286;2022-08-26T16:59:35;101451.00;;;32.60
34807;BMP180;18310;55.586;12.286;2022-08-26T17:02:39;101447.00;;;32.60
34807;BMP180;18310;55.586;12.286;2022-08-26T17:05:43;101456.00;;;32.60
34807;BMP180;18310;55.586;12.286;2022-08-26T17:08:46;101449.00;;;32.50
34807;BMP180;18310;55.586;12.286;2022-08-26T17:11:50;101447.00;;;32.40
34807;BMP180;18310;55.586;12.286;2022-08-26T17:14:54;101449.00;;;32.40
34807;BMP180;18310;55.586;12.286;2022-08-26T17:17:57;101450.00;;;32.50
34807;BMP180;18310;55.586;12.286;2022-08-26T17:21:04;101451.00;;;32.50
34807;BMP180;18310;55.586;12.286;2022-08-26T17:24:08;101462.00;;;32.60
34807;BMP180;18310;55.586;12.286;2022-08-26T17:27:11;101465.00;;;32.70
34807;BMP180;18310;55.586;12.286;2022-08-26T17:30:15;101468.00;;;32.90